sensor_id;sensor_type;location;lat;lon;timestamp;temperature;humidity
36498;DHT22;22513;51.222;6.480;2023-12-20T00:02:19;20.60;58.60
36498;DHT22;22513;51.222;6.480;2023-12-20T00:04:45;20.60;58.70
36498;DHT22;22513;51.222;6.480;2023-12-20T00:07:10;20.60;58.60
36498;DHT22;22513;51.222;6.480;2023-12-20T00:09:36;20.60;58.70
36498;DHT22;22513;51.222;6.480;2023-12-20T00:12:02;20.60;58.60
36498;DHT22;22513;51.222;6.480;2023-12-20T00:14:28;20.60;58.60
36498;DHT22;22513;51.222;6.480;2023-12-20T00:16:53;20.60;58.70
36498;DHT22;22513;51.222;6.480;2023-12-20T00:19:19;20.60;58.60
36498;DHT22;22513;51.222;6.480;2023-12-20T00:21:44;20.60;58.70
36498;DHT22;22513;51.222;6.480;2023-12-20T00:24:10;20.60;58.70
36498;DHT22;22513;51.222;6.480;2023-12-20T00:26:35;20.60;58.70
36498;DHT22;22513;51.222;6.480;2023-12-20T00:29:01;20.60;58.70
36498;DHT22;22513;51.222;6.480;2023-12-20T00:31:27;20.60;58.70
36498;DHT22;22513;51.222;6.480;2023-12-20T00:33:52;20.60;58.70
36498;DHT22;22513;51.222;6.480;2023-12-20T00:36:18;20.60;58.70
36498;DHT22;22513;51.222;6.480;2023-12-20T00:38:43;20.60;58.60
36498;DHT22;22513;51.222;6.480;2023-12-20T00:41:09;20.60;58.70
36498;DHT22;22513;51.222;6.480;2023-12-20T00:43:34;20.60;58.70
36498;DHT22;22513;51.222;6.480;2023-12-20T00:46:00;20.60;58.70
36498;DHT22;22513;51.222;6.480;2023-12-20T00:48:26;20.60;58.70
36498;DHT22;22513;51.222;6.480;2023-12-20T00:50:57;20.60;58.70
36498;DHT22;22513;51.222;6.480;2023-12-20T00:53:22;20.60;58.70
36498;DHT22;22513;51.222;6.480;2023-12-20T00:55:48;20.60;58.70
36498;DHT22;22513;51.222;6.480;2023-12-20T00:58:15;20.60;58.70
36498;DHT22;22513;51.222;6.480;2023-12-20T01:00:40;20.60;58.70
36498;DHT22;22513;51.222;6.480;2023-12-20T01:03:07;20.60;58.70
36498;DHT22;22513;51.222;6.480;2023-12-20T01:05:33;20.60;58.70
36498;DHT22;22513;51.222;6.480;2023-12-20T01:07:58;20.60;58.70
36498;DHT22;22513;51.222;6.480;2023-12-20T01:10:24;20.60;59.40
36498;DHT22;22513;51.222;6.480;2023-12-20T01:12:53;20.60;58.70
36498;DHT22;22513;51.222;6.480;2023-12-20T01:15:19;20.60;58.70
36498;DHT22;22513;51.222;6.480;2023-12-20T01:17:44;20.60;58.70
36498;DHT22;22513;51.222;6.480;2023-12-20T01:20:10;20.60;58.70
36498;DHT22;22513;51.222;6.480;2023-12-20T01:22:35;20.60;58.80
36498;DHT22;22513;51.222;6.480;2023-12-20T01:25:01;20.60;58.70
36498;DHT22;22513;51.222;6.480;2023-12-20T01:27:28;20.60;58.80
36498;DHT22;22513;51.222;6.480;2023-12-20T01:29:53;20.60;58.80
36498;DHT22;22513;51.222;6.480;2023-12-20T01:32:19;20.60;58.80
36498;DHT22;22513;51.222;6.480;2023-12-20T01:34:45;20.60;58.70
36498;DHT22;22513;51.222;6.480;2023-12-20T01:37:10;20.60;58.70
36498;DHT22;22513;51.222;6.480;2023-12-20T01:39:36;20.60;58.80
36498;DHT22;22513;51.222;6.480;2023-12-20T01:42:02;20.60;58.80
36498;DHT22;22513;51.222;6.480;2023-12-20T01:44:27;20.60;58.80
36498;DHT22;22513;51.222;6.480;2023-12-20T01:46:53;20.60;58.80
36498;DHT22;22513;51.222;6.480;2023-12-20T01:49:19;20.60;58.80
36498;DHT22;22513;51.222;6.480;2023-12-20T01:51:46;20.60;58.80
36498;DHT22;22513;51.222;6.480;2023-12-20T01:54:11;20.60;58.80
36498;DHT22;22513;51.222;6.480;2023-12-20T01:56:38;20.60;58.80
36498;DHT22;22513;51.222;6.480;2023-12-20T01:59:05;20.60;58.80
36498;DHT22;22513;51.222;6.480;2023-12-20T02:01:32;20.60;58.80
36498;DHT22;22513;51.222;6.480;2023-12-20T02:03:58;20.60;58.80
36498;DHT22;22513;51.222;6.480;2023-12-20T02:06:24;20.60;58.80
36498;DHT22;22513;51.222;6.480;2023-12-20T02:08:54;20.60;58.80
36498;DHT22;22513;51.222;6.480;2023-12-20T02:11:20;20.60;58.80
36498;DHT22;22513;51.222;6.480;2023-12-20T02:13:46;20.60;58.80
36498;DHT22;22513;51.222;6.480;2023-12-20T02:16:12;20.60;58.80
36498;DHT22;22513;51.222;6.480;2023-12-20T02:18:37;20.60;58.80
36498;DHT22;22513;51.222;6.480;2023-12-20T02:21:05;20.60;58.80
36498;DHT22;22513;51.222;6.480;2023-12-20T02:23:31;20.60;58.80
36498;DHT22;22513;51.222;6.480;2023-12-20T02:25:56;20.60;58.80
36498;DHT22;22513;51.222;6.480;2023-12-20T02:28:22;20.60;58.80
36498;DHT22;22513;51.222;6.480;2023-12-20T02:30:48;20.50;58.80
36498;DHT22;22513;51.222;6.480;2023-12-20T02:33:15;20.60;58.80
36498;DHT22;22513;51.222;6.480;2023-12-20T02:35:41;20.60;58.90
36498;DHT22;22513;51.222;6.480;2023-12-20T02:38:06;20.50;58.80
36498;DHT22;22513;51.222;6.480;2023-12-20T02:40:32;20.60;58.80
36498;DHT22;22513;51.222;6.480;2023-12-20T02:42:58;20.50;58.80
36498;DHT22;22513;51.222;6.480;2023-12-20T02:45:23;20.50;58.80
36498;DHT22;22513;51.222;6.480;2023-12-20T02:47:49;20.60;58.90
36498;DHT22;22513;51.222;6.480;2023-12-20T02:50:15;20.60;58.90
36498;DHT22;22513;51.222;6.480;2023-12-20T02:52:40;20.60;58.90
36498;DHT22;22513;51.222;6.480;2023-12-20T02:55:06;20.50;58.80
36498;DHT22;22513;51.222;6.480;2023-12-20T02:57:31;20.50;58.80
36498;DHT22;22513;51.222;6.480;2023-12-20T02:59:58;20.50;58.80
36498;DHT22;22513;51.222;6.480;2023-12-20T03:02:24;20.50;58.80
36498;DHT22;22513;51.222;6.480;2023-12-20T03:04:49;20.50;58.80
36498;DHT22;22513;51.222;6.480;2023-12-20T03:07:15;20.50;58.90
36498;DHT22;22513;51.222;6.480;2023-12-20T03:09:41;20.50;58.90
36498;DHT22;22513;51.222;6.480;2023-12-20T03:12:06;20.50;58.90
36498;DHT22;22513;51.222;6.480;2023-12-20T03:14:32;20.50;58.80
36498;DHT22;22513;51.222;6.480;2023-12-20T03:16:57;20.50;58.90
36498;DHT22;22513;51.222;6.480;2023-12-20T03:19:23;20.50;58.90
36498;DHT22;22513;51.222;6.480;2023-12-20T03:21:49;20.50;58.90
36498;DHT22;22513;51.222;6.480;2023-12-20T03:24:14;20.50;58.80
36498;DHT22;22513;51.222;6.480;2023-12-20T03:26:40;20.50;58.90
36498;DHT22;22513;51.222;6.480;2023-12-20T03:29:05;20.50;58.80
36498;DHT22;22513;51.222;6.480;2023-12-20T03:31:31;20.50;58.90
36498;DHT22;22513;51.222;6.480;2023-12-20T03:33:57;20.50;58.90
36498;DHT22;22513;51.222;6.480;2023-12-20T03:36:22;20.50;58.90
36498;DHT22;22513;51.222;6.480;2023-12-20T03:38:48;20.50;58.90
36498;DHT22;22513;51.222;6.480;2023-12-20T03:41:14;20.50;58.90
36498;DHT22;22513;51.222;6.480;2023-12-20T03:43:39;20.50;58.90
36498;DHT22;22513;51.222;6.480;2023-12-20T03:48:34;20.50;58.90
36498;DHT22;22513;51.222;6.480;2023-12-20T03:51:00;20.50;58.90
36498;DHT22;22513;51.222;6.480;2023-12-20T03:53:25;20.50;58.90
36498;DHT22;22513;51.222;6.480;2023-12-20T03:55:51;20.50;58.90
36498;DHT22;22513;51.222;6.480;2023-12-20T03:58:16;20.50;58.90
36498;DHT22;22513;51.222;6.480;2023-12-20T04:00:42;20.50;58.90
36498;DHT22;22513;51.222;6.480;2023-12-20T04:03:07;20.50;58.90
36498;DHT22;22513;51.222;6.480;2023-12-20T04:05:33;20.50;58.90
36498;DHT22;22513;51.222;6.480;2023-12-20T04:08:01;20.50;58.90
36498;DHT22;22513;51.222;6.480;2023-12-20T04:10:27;20.50;58.90
36498;DHT22;22513;51.222;6.480;2023-12-20T04:12:53;20.50;59.00
36498;DHT22;22513;51.222;6.480;2023-12-20T04:15:18;20.50;59.60
36498;DHT22;22513;51.222;6.480;2023-12-20T04:17:44;20.50;58.90
36498;DHT22;22513;51.222;6.480;2023-12-20T04:20:10;20.50;59.00
36498;DHT22;22513;51.222;6.480;2023-12-20T04:22:35;20.50;58.90
36498;DHT22;22513;51.222;6.480;2023-12-20T04:25:01;20.50;59.00
36498;DHT22;22513;51.222;6.480;2023-12-20T04:27:27;20.50;59.00
36498;DHT22;22513;51.222;6.480;2023-12-20T04:29:53;20.50;58.90
36498;DHT22;22513;51.222;6.480;2023-12-20T04:32:18;20.50;58.90
36498;DHT22;22513;51.222;6.480;2023-12-20T04:34:44;20.50;58.90
36498;DHT22;22513;51.222;6.480;2023-12-20T04:37:09;20.50;59.00
36498;DHT22;22513;51.222;6.480;2023-12-20T04:39:35;20.50;58.90
36498;DHT22;22513;51.222;6.480;2023-12-20T04:42:01;20.50;59.00
36498;DHT22;22513;51.222;6.480;2023-12-20T04:44:26;20.50;59.00
36498;DHT22;22513;51.222;6.480;2023-12-20T04:46:52;20.50;59.00
36498;DHT22;22513;51.222;6.480;2023-12-20T04:49:18;20.50;59.00
36498;DHT22;22513;51.222;6.480;2023-12-20T04:51:43;20.50;59.00
36498;DHT22;22513;51.222;6.480;2023-12-20T04:54:09;20.50;59.00
36498;DHT22;22513;51.222;6.480;2023-12-20T04:56:36;20.50;59.00
36498;DHT22;22513;51.222;6.480;2023-12-20T04:59:01;20.50;59.00
36498;DHT22;22513;51.222;6.480;2023-12-20T05:01:27;20.50;59.00
36498;DHT22;22513;51.222;6.480;2023-12-20T05:03:52;20.50;59.00
36498;DHT22;22513;51.222;6.480;2023-12-20T05:06:18;20.40;59.00
36498;DHT22;22513;51.222;6.480;2023-12-20T05:08:44;20.50;59.00
36498;DHT22;22513;51.222;6.480;2023-12-20T05:11:09;20.50;58.90
36498;DHT22;22513;51.222;6.480;2023-12-20T05:13:35;20.50;58.90
36498;DHT22;22513;51.222;6.480;2023-12-20T05:16:00;20.50;58.80
36498;DHT22;22513;51.222;6.480;2023-12-20T05:18:26;20.50;58.80
36498;DHT22;22513;51.222;6.480;2023-12-20T05:20:52;20.50;58.70
36498;DHT22;22513;51.222;6.480;2023-12-20T05:23:17;20.50;58.60
36498;DHT22;22513;51.222;6.480;2023-12-20T05:25:43;20.50;58.60
36498;DHT22;22513;51.222;6.480;2023-12-20T05:28:09;20.50;58.50
36498;DHT22;22513;51.222;6.480;2023-12-20T05:30:34;20.50;58.50
36498;DHT22;22513;51.222;6.480;2023-12-20T05:33:00;20.50;58.40
36498;DHT22;22513;51.222;6.480;2023-12-20T05:35:26;20.50;58.30
36498;DHT22;22513;51.222;6.480;2023-12-20T05:37:51;20.50;58.20
36498;DHT22;22513;51.222;6.480;2023-12-20T05:40:17;20.50;58.20
36498;DHT22;22513;51.222;6.480;2023-12-20T05:42:42;20.50;58.10
36498;DHT22;22513;51.222;6.480;2023-12-20T05:45:09;20.40;58.00
36498;DHT22;22513;51.222;6.480;2023-12-20T05:47:35;20.50;58.00
36498;DHT22;22513;51.222;6.480;2023-12-20T05:50:00;20.50;57.90
36498;DHT22;22513;51.222;6.480;2023-12-20T05:52:26;20.50;57.90
36498;DHT22;22513;51.222;6.480;2023-12-20T05:54:52;20.40;57.90
36498;DHT22;22513;51.222;6.480;2023-12-20T05:57:17;20.50;57.90
36498;DHT22;22513;51.222;6.480;2023-12-20T05:59:43;20.50;57.80
36498;DHT22;22513;51.222;6.480;2023-12-20T06:02:08;20.50;57.80
36498;DHT22;22513;51.222;6.480;2023-12-20T06:04:34;20.50;57.70
36498;DHT22;22513;51.222;6.480;2023-12-20T06:06:59;20.50;58.40
36498;DHT22;22513;51.222;6.480;2023-12-20T06:09:27;20.50;57.70
36498;DHT22;22513;51.222;6.480;2023-12-20T06:11:52;20.50;57.70
36498;DHT22;22513;51.222;6.480;2023-12-20T06:14:18;20.50;57.70
36498;DHT22;22513;51.222;6.480;2023-12-20T06:16:45;20.50;57.60
36498;DHT22;22513;51.222;6.480;2023-12-20T06:19:11;20.50;57.60
36498;DHT22;22513;51.222;6.480;2023-12-20T06:21:36;20.50;57.60
36498;DHT22;22513;51.222;6.480;2023-12-20T06:24:02;20.50;57.60
36498;DHT22;22513;51.222;6.480;2023-12-20T06:26:27;20.50;57.50
36498;DHT22;22513;51.222;6.480;2023-12-20T06:28:53;20.50;57.50
36498;DHT22;22513;51.222;6.480;2023-12-20T06:31:19;20.50;57.50
36498;DHT22;22513;51.222;6.480;2023-12-20T06:33:44;20.50;57.50
36498;DHT22;22513;51.222;6.480;2023-12-20T06:36:13;20.50;57.50
36498;DHT22;22513;51.222;6.480;2023-12-20T06:38:39;20.50;57.40
36498;DHT22;22513;51.222;6.480;2023-12-20T06:41:05;20.50;57.40
36498;DHT22;22513;51.222;6.480;2023-12-20T06:43:31;20.50;57.40
36498;DHT22;22513;51.222;6.480;2023-12-20T06:45:57;20.50;57.40
36498;DHT22;22513;51.222;6.480;2023-12-20T06:48:23;20.50;57.40
36498;DHT22;22513;51.222;6.480;2023-12-20T06:50:49;20.50;57.30
36498;DHT22;22513;51.222;6.480;2023-12-20T06:53:15;20.50;57.30
36498;DHT22;22513;51.222;6.480;2023-12-20T06:55:40;20.50;57.30
36498;DHT22;22513;51.222;6.480;2023-12-20T06:58:06;20.50;57.30
36498;DHT22;22513;51.222;6.480;2023-12-20T07:00:32;20.50;57.30
36498;DHT22;22513;51.222;6.480;2023-12-20T07:02:58;20.50;57.30
36498;DHT22;22513;51.222;6.480;2023-12-20T07:05:24;20.50;57.30
36498;DHT22;22513;51.222;6.480;2023-12-20T07:07:49;20.50;57.30
36498;DHT22;22513;51.222;6.480;2023-12-20T07:10:15;20.50;57.30
36498;DHT22;22513;51.222;6.480;2023-12-20T07:12:40;20.50;57.20
36498;DHT22;22513;51.222;6.480;2023-12-20T07:15:06;20.50;57.20
36498;DHT22;22513;51.222;6.480;2023-12-20T07:17:33;20.50;57.20
36498;DHT22;22513;51.222;6.480;2023-12-20T07:19:59;20.50;57.20
36498;DHT22;22513;51.222;6.480;2023-12-20T07:22:32;20.50;57.10
36498;DHT22;22513;51.222;6.480;2023-12-20T07:24:58;20.50;57.20
36498;DHT22;22513;51.222;6.480;2023-12-20T07:27:24;20.50;57.10
36498;DHT22;22513;51.222;6.480;2023-12-20T07:29:49;20.50;57.10
36498;DHT22;22513;51.222;6.480;2023-12-20T07:32:15;20.50;57.10
36498;DHT22;22513;51.222;6.480;2023-12-20T07:34:40;20.50;57.10
36498;DHT22;22513;51.222;6.480;2023-12-20T07:37:06;20.50;57.10
36498;DHT22;22513;51.222;6.480;2023-12-20T07:39:32;20.50;57.10
36498;DHT22;22513;51.222;6.480;2023-12-20T07:41:57;20.50;57.10
36498;DHT22;22513;51.222;6.480;2023-12-20T07:44:23;20.50;57.10
36498;DHT22;22513;51.222;6.480;2023-12-20T07:46:48;20.50;57.10
36498;DHT22;22513;51.222;6.480;2023-12-20T07:49:14;20.50;57.00
36498;DHT22;22513;51.222;6.480;2023-12-20T07:51:40;20.50;57.00
36498;DHT22;22513;51.222;6.480;2023-12-20T07:54:05;20.50;57.00
36498;DHT22;22513;51.222;6.480;2023-12-20T07:56:33;20.50;57.00
36498;DHT22;22513;51.222;6.480;2023-12-20T07:58:59;20.50;56.90
36498;DHT22;22513;51.222;6.480;2023-12-20T08:01:24;20.50;56.90
36498;DHT22;22513;51.222;6.480;2023-12-20T08:03:50;20.50;56.90
36498;DHT22;22513;51.222;6.480;2023-12-20T08:06:19;20.50;56.90
36498;DHT22;22513;51.222;6.480;2023-12-20T08:08:44;20.60;56.90
36498;DHT22;22513;51.222;6.480;2023-12-20T08:11:10;20.50;56.80
36498;DHT22;22513;51.222;6.480;2023-12-20T08:13:36;20.50;56.90
36498;DHT22;22513;51.222;6.480;2023-12-20T08:16:01;20.50;56.80
36498;DHT22;22513;51.222;6.480;2023-12-20T08:18:28;20.50;56.80
36498;DHT22;22513;51.222;6.480;2023-12-20T08:20:54;20.50;56.70
36498;DHT22;22513;51.222;6.480;2023-12-20T08:23:20;20.50;56.70
36498;DHT22;22513;51.222;6.480;2023-12-20T08:25:49;20.50;56.70
36498;DHT22;22513;51.222;6.480;2023-12-20T08:28:14;20.60;56.70
36498;DHT22;22513;51.222;6.480;2023-12-20T08:30:40;20.50;56.60
36498;DHT22;22513;51.222;6.480;2023-12-20T08:33:06;20.60;56.60
36498;DHT22;22513;51.222;6.480;2023-12-20T08:35:36;20.60;56.60
36498;DHT22;22513;51.222;6.480;2023-12-20T08:38:02;20.60;56.50
36498;DHT22;22513;51.222;6.480;2023-12-20T08:40:29;20.60;56.50
36498;DHT22;22513;51.222;6.480;2023-12-20T08:42:55;20.50;56.50
36498;DHT22;22513;51.222;6.480;2023-12-20T08:45:20;20.60;56.50
36498;DHT22;22513;51.222;6.480;2023-12-20T08:47:46;20.60;56.50
36498;DHT22;22513;51.222;6.480;2023-12-20T08:50:12;20.60;56.50
36498;DHT22;22513;51.222;6.480;2023-12-20T08:52:38;20.60;56.50
36498;DHT22;22513;51.222;6.480;2023-12-20T08:55:04;20.60;56.40
36498;DHT22;22513;51.222;6.480;2023-12-20T08:57:29;20.60;56.40
36498;DHT22;22513;51.222;6.480;2023-12-20T08:59:57;20.60;56.40
36498;DHT22;22513;51.222;6.480;2023-12-20T09:02:23;20.60;56.30
36498;DHT22;22513;51.222;6.480;2023-12-20T09:04:48;20.60;56.30
36498;DHT22;22513;51.222;6.480;2023-12-20T09:07:24;20.60;56.30
36498;DHT22;22513;51.222;6.480;2023-12-20T09:09:51;20.60;56.30
36498;DHT22;22513;51.222;6.480;2023-12-20T09:12:20;20.60;56.30
36498;DHT22;22513;51.222;6.480;2023-12-20T09:14:47;20.60;56.30
36498;DHT22;22513;51.222;6.480;2023-12-20T09:17:13;20.60;56.30
36498;DHT22;22513;51.222;6.480;2023-12-20T09:19:39;20.60;56.20
36498;DHT22;22513;51.222;6.480;2023-12-20T09:22:06;20.60;56.20
36498;DHT22;22513;51.222;6.480;2023-12-20T09:24:32;20.60;56.20
36498;DHT22;22513;51.222;6.480;2023-12-20T09:26:57;20.60;56.20
36498;DHT22;22513;51.222;6.480;2023-12-20T09:29:23;20.60;56.20
36498;DHT22;22513;51.222;6.480;2023-12-20T09:31:50;20.60;56.20
36498;DHT22;22513;51.222;6.480;2023-12-20T09:34:16;20.60;56.10
36498;DHT22;22513;51.222;6.480;2023-12-20T09:36:42;20.60;56.20
36498;DHT22;22513;51.222;6.480;2023-12-20T09:39:16;20.60;56.10
36498;DHT22;22513;51.222;6.480;2023-12-20T09:42:07;20.60;56.10
36498;DHT22;22513;51.222;6.480;2023-12-20T09:44:34;20.60;56.10
36498;DHT22;22513;51.222;6.480;2023-12-20T09:47:03;20.60;56.10
36498;DHT22;22513;51.222;6.480;2023-12-20T09:49:30;20.60;56.70
36498;DHT22;22513;51.222;6.480;2023-12-20T09:51:56;20.60;56.00
36498;DHT22;22513;51.222;6.480;2023-12-20T09:54:23;20.60;56.00
36498;DHT22;22513;51.222;6.480;2023-12-20T09:56:49;20.60;56.00
36498;DHT22;22513;51.222;6.480;2023-12-20T09:59:15;20.60;56.00
36498;DHT22;22513;51.222;6.480;2023-12-20T10:01:41;20.60;56.00
36498;DHT22;22513;51.222;6.480;2023-12-20T10:04:09;20.60;55.90
36498;DHT22;22513;51.222;6.480;2023-12-20T10:06:36;20.70;56.00
36498;DHT22;22513;51.222;6.480;2023-12-20T10:09:02;20.60;55.90
36498;DHT22;22513;51.222;6.480;2023-12-20T10:11:27;20.70;56.00
36498;DHT22;22513;51.222;6.480;2023-12-20T10:13:59;20.60;55.90
36498;DHT22;22513;51.222;6.480;2023-12-20T10:16:26;20.70;56.00
36498;DHT22;22513;51.222;6.480;2023-12-20T10:18:56;20.70;55.90
36498;DHT22;22513;51.222;6.480;2023-12-20T10:21:25;20.70;55.90
36498;DHT22;22513;51.222;6.480;2023-12-20T10:23:55;20.70;55.90
36498;DHT22;22513;51.222;6.480;2023-12-20T10:26:21;20.70;55.90
36498;DHT22;22513;51.222;6.480;2023-12-20T10:28:53;20.70;56.00
36498;DHT22;22513;51.222;6.480;2023-12-20T10:31:35;20.80;56.20
36498;DHT22;22513;51.222;6.480;2023-12-20T10:34:02;20.90;56.40
36498;DHT22;22513;51.222;6.480;2023-12-20T10:36:30;21.00;56.50
36498;DHT22;22513;51.222;6.480;2023-12-20T10:38:56;21.00;56.50
36498;DHT22;22513;51.222;6.480;2023-12-20T10:41:33;21.10;56.40
36498;DHT22;22513;51.222;6.480;2023-12-20T10:44:02;21.20;56.20
36498;DHT22;22513;51.222;6.480;2023-12-20T10:46:31;21.20;56.80
36498;DHT22;22513;51.222;6.480;2023-12-20T10:48:57;21.30;56.10
36498;DHT22;22513;51.222;6.480;2023-12-20T10:51:23;21.30;56.00
36498;DHT22;22513;51.222;6.480;2023-12-20T10:53:52;21.30;56.00
36498;DHT22;22513;51.222;6.480;2023-12-20T10:56:19;21.30;55.90
36498;DHT22;22513;51.222;6.480;2023-12-20T10:58:46;21.30;55.80
36498;DHT22;22513;51.222;6.480;2023-12-20T11:01:14;21.30;55.80
36498;DHT22;22513;51.222;6.480;2023-12-20T11:12:15;21.20;55.70
36498;DHT22;22513;51.222;6.480;2023-12-20T11:14:46;21.20;55.70
36498;DHT22;22513;51.222;6.480;2023-12-20T11:17:13;21.20;55.70
36498;DHT22;22513;51.222;6.480;2023-12-20T11:22:29;21.20;55.70
36498;DHT22;22513;51.222;6.480;2023-12-20T11:25:02;21.20;55.70
36498;DHT22;22513;51.222;6.480;2023-12-20T11:27:30;21.20;55.60
36498;DHT22;22513;51.222;6.480;2023-12-20T11:29:58;21.20;55.60
36498;DHT22;22513;51.222;6.480;2023-12-20T11:34:57;21.20;55.60
36498;DHT22;22513;51.222;6.480;2023-12-20T11:37:32;21.30;55.60
36498;DHT22;22513;51.222;6.480;2023-12-20T11:40:05;21.50;55.40
36498;DHT22;22513;51.222;6.480;2023-12-20T11:42:43;21.60;55.20
36498;DHT22;22513;51.222;6.480;2023-12-20T11:45:23;21.80;55.00
36498;DHT22;22513;51.222;6.480;2023-12-20T11:47:50;22.00;54.70
36498;DHT22;22513;51.222;6.480;2023-12-20T11:50:17;22.30;54.50
36498;DHT22;22513;51.222;6.480;2023-12-20T11:52:44;22.50;54.20
36498;DHT22;22513;51.222;6.480;2023-12-20T11:55:09;22.70;53.80
36498;DHT22;22513;51.222;6.480;2023-12-20T11:57:36;22.90;53.40
36498;DHT22;22513;51.222;6.480;2023-12-20T12:00:03;23.10;53.10
36498;DHT22;22513;51.222;6.480;2023-12-20T12:02:29;23.20;52.80
36498;DHT22;22513;51.222;6.480;2023-12-20T12:04:55;23.40;52.50
36498;DHT22;22513;51.222;6.480;2023-12-20T12:07:22;23.50;52.20
36498;DHT22;22513;51.222;6.480;2023-12-20T12:09:48;23.70;52.00
36498;DHT22;22513;51.222;6.480;2023-12-20T12:12:13;23.80;51.70
36498;DHT22;22513;51.222;6.480;2023-12-20T12:14:39;23.80;51.60
36498;DHT22;22513;51.222;6.480;2023-12-20T12:17:10;23.90;51.40
36498;DHT22;22513;51.222;6.480;2023-12-20T12:19:37;24.00;51.20
36498;DHT22;22513;51.222;6.480;2023-12-20T12:22:07;24.10;51.10
36498;DHT22;22513;51.222;6.480;2023-12-20T12:24:34;24.10;50.90
36498;DHT22;22513;51.222;6.480;2023-12-20T12:27:00;24.20;51.50
36498;DHT22;22513;51.222;6.480;2023-12-20T12:29:25;24.20;50.70
36498;DHT22;22513;51.222;6.480;2023-12-20T12:31:54;24.20;50.60
36498;DHT22;22513;51.222;6.480;2023-12-20T12:34:20;24.20;50.50
36498;DHT22;22513;51.222;6.480;2023-12-20T12:36:45;24.30;50.50
36498;DHT22;22513;51.222;6.480;2023-12-20T12:39:15;24.30;50.50
36498;DHT22;22513;51.222;6.480;2023-12-20T12:41:42;24.30;50.40
36498;DHT22;22513;51.222;6.480;2023-12-20T12:44:08;24.30;50.40
36498;DHT22;22513;51.222;6.480;2023-12-20T12:46:34;24.30;50.40
36498;DHT22;22513;51.222;6.480;2023-12-20T12:48:59;24.30;50.30
36498;DHT22;22513;51.222;6.480;2023-12-20T12:51:25;24.30;50.40
36498;DHT22;22513;51.222;6.480;2023-12-20T12:53:51;24.30;50.30
36498;DHT22;22513;51.222;6.480;2023-12-20T12:56:16;24.30;50.30
36498;DHT22;22513;51.222;6.480;2023-12-20T12:58:42;24.30;50.30
36498;DHT22;22513;51.222;6.480;2023-12-20T13:01:08;24.30;50.30
36498;DHT22;22513;51.222;6.480;2023-12-20T13:03:35;24.20;50.30
36498;DHT22;22513;51.222;6.480;2023-12-20T13:06:01;24.20;50.30
36498;DHT22;22513;51.222;6.480;2023-12-20T13:08:27;24.20;50.30
36498;DHT22;22513;51.222;6.480;2023-12-20T13:10:53;24.20;50.40
36498;DHT22;22513;51.222;6.480;2023-12-20T13:13:19;24.20;50.40
36498;DHT22;22513;51.222;6.480;2023-12-20T13:15:44;24.30;52.00
36498;DHT22;22513;51.222;6.480;2023-12-20T13:18:18;24.60;52.40
36498;DHT22;22513;51.222;6.480;2023-12-20T13:20:44;24.90;51.20
36498;DHT22;22513;51.222;6.480;2023-12-20T13:23:10;25.00;50.50
36498;DHT22;22513;51.222;6.480;2023-12-20T13:25:35;25.20;50.10
36498;DHT22;22513;51.222;6.480;2023-12-20T13:28:01;25.20;49.80
36498;DHT22;22513;51.222;6.480;2023-12-20T13:30:28;25.30;49.60
36498;DHT22;22513;51.222;6.480;2023-12-20T13:32:53;25.30;49.60
36498;DHT22;22513;51.222;6.480;2023-12-20T13:35:19;25.30;49.50
36498;DHT22;22513;51.222;6.480;2023-12-20T13:37:46;25.30;49.40
36498;DHT22;22513;51.222;6.480;2023-12-20T13:40:12;25.40;49.40
36498;DHT22;22513;51.222;6.480;2023-12-20T13:42:41;25.40;49.40
36498;DHT22;22513;51.222;6.480;2023-12-20T13:45:07;25.40;49.40
36498;DHT22;22513;51.222;6.480;2023-12-20T13:47:33;25.40;49.40
36498;DHT22;22513;51.222;6.480;2023-12-20T13:49:58;25.40;49.40
36498;DHT22;22513;51.222;6.480;2023-12-20T13:52:24;25.40;49.50
36498;DHT22;22513;51.222;6.480;2023-12-20T13:54:50;25.40;49.40
36498;DHT22;22513;51.222;6.480;2023-12-20T13:57:15;25.40;49.50
36498;DHT22;22513;51.222;6.480;2023-12-20T13:59:41;25.40;50.10
36498;DHT22;22513;51.222;6.480;2023-12-20T14:02:07;25.40;49.50
36498;DHT22;22513;51.222;6.480;2023-12-20T14:04:33;25.30;49.30
36498;DHT22;22513;51.222;6.480;2023-12-20T14:06:58;25.40;49.40
36498;DHT22;22513;51.222;6.480;2023-12-20T14:09:24;25.40;49.30
36498;DHT22;22513;51.222;6.480;2023-12-20T14:11:50;25.40;49.40
36498;DHT22;22513;51.222;6.480;2023-12-20T14:14:16;25.40;49.30
36498;DHT22;22513;51.222;6.480;2023-12-20T14:16:41;25.50;49.30
36498;DHT22;22513;51.222;6.480;2023-12-20T14:19:10;25.50;49.20
36498;DHT22;22513;51.222;6.480;2023-12-20T14:21:36;25.50;49.20
36498;DHT22;22513;51.222;6.480;2023-12-20T14:24:02;25.60;49.20
36498;DHT22;22513;51.222;6.480;2023-12-20T14:26:29;25.60;49.20
36498;DHT22;22513;51.222;6.480;2023-12-20T14:28:55;25.50;49.10
36498;DHT22;22513;51.222;6.480;2023-12-20T14:31:21;25.50;49.20
36498;DHT22;22513;51.222;6.480;2023-12-20T14:33:48;25.40;49.20
36498;DHT22;22513;51.222;6.480;2023-12-20T14:36:16;25.40;49.20
36498;DHT22;22513;51.222;6.480;2023-12-20T14:38:43;25.40;49.20
36498;DHT22;22513;51.222;6.480;2023-12-20T14:41:08;25.40;49.10
36498;DHT22;22513;51.222;6.480;2023-12-20T14:43:34;25.40;49.10
36498;DHT22;22513;51.222;6.480;2023-12-20T14:46:00;25.40;49.20
36498;DHT22;22513;51.222;6.480;2023-12-20T14:48:25;25.40;49.20
36498;DHT22;22513;51.222;6.480;2023-12-20T14:50:53;25.40;49.20
36498;DHT22;22513;51.222;6.480;2023-12-20T14:53:19;25.40;49.20
36498;DHT22;22513;51.222;6.480;2023-12-20T14:55:45;25.30;49.20
36498;DHT22;22513;51.222;6.480;2023-12-20T14:58:10;25.30;49.20
36498;DHT22;22513;51.222;6.480;2023-12-20T15:00:36;25.30;49.30
36498;DHT22;22513;51.222;6.480;2023-12-20T15:03:02;25.30;49.30
36498;DHT22;22513;51.222;6.480;2023-12-20T15:05:29;25.30;49.30
36498;DHT22;22513;51.222;6.480;2023-12-20T15:07:55;25.30;49.30
36498;DHT22;22513;51.222;6.480;2023-12-20T15:10:20;25.20;49.30
36498;DHT22;22513;51.222;6.480;2023-12-20T15:12:46;25.20;49.30
36498;DHT22;22513;51.222;6.480;2023-12-20T15:15:12;25.30;49.30
36498;DHT22;22513;51.222;6.480;2023-12-20T15:17:37;25.30;49.20
36498;DHT22;22513;51.222;6.480;2023-12-20T15:20:04;25.30;49.20
36498;DHT22;22513;51.222;6.480;2023-12-20T15:22:30;25.30;49.20
36498;DHT22;22513;51.222;6.480;2023-12-20T15:24:57;25.30;49.20
36498;DHT22;22513;51.222;6.480;2023-12-20T15:27:23;25.30;49.20
36498;DHT22;22513;51.222;6.480;2023-12-20T15:29:49;25.30;49.20
36498;DHT22;22513;51.222;6.480;2023-12-20T15:32:17;25.30;49.20
36498;DHT22;22513;51.222;6.480;2023-12-20T15:34:44;25.30;49.10
36498;DHT22;22513;51.222;6.480;2023-12-20T15:37:10;25.30;49.10
36498;DHT22;22513;51.222;6.480;2023-12-20T15:39:35;25.30;49.10
36498;DHT22;22513;51.222;6.480;2023-12-20T15:42:01;25.30;49.10